Time;durP1;ratioP1;P1;durP2;ratioP2;P2;SDS_P1;SDS_P2;PMS_P1;PMS_P2;Temp;Humidity;BMP_temperature;BMP_pressure;BME280_temperature;BME280_humidity;BME280_pressure;Samples;Min_cycle;Max_cycle;Signal;HPM_P1;HPM_P2
2023/04/06 00:01:20;;;;;;;3.97;3.00;;;1.30;99.90;;;;;;5016514;28;20175;-81
2023/04/06 00:03:46;;;;;;;4.47;3.43;;;1.20;99.90;;;;;;5017367;28;20195;-80
2023/04/06 00:06:11;;;;;;;4.80;3.30;;;1.10;99.90;;;;;;5034480;28;20581;-80
2023/04/06 00:08:37;;;;;;;3.83;3.30;;;1.10;99.90;;;;;;5034713;28;20179;-80
2023/04/06 00:11:03;;;;;;;4.03;3.47;;;1.10;99.90;;;;;;5033458;28;20258;-81
2023/04/06 00:13:28;;;;;;;3.60;3.10;;;1.10;99.90;;;;;;5017071;28;20183;-81
2023/04/06 00:15:54;;;;;;;4.70;3.33;;;1.10;99.90;;;;;;5016797;28;20287;-80
2023/04/06 00:18:20;;;;;;;4.23;3.33;;;1.10;99.90;;;;;;5034582;28;20175;-80
2023/04/06 00:20:45;;;;;;;5.67;3.43;;;1.20;99.90;;;;;;5034057;28;20172;-80
2023/04/06 00:23:11;;;;;;;4.20;3.27;;;1.20;99.90;;;;;;5016923;28;20548;-80
2023/04/06 00:25:37;;;;;;;4.77;3.47;;;1.20;99.90;;;;;;5034642;28;20213;-81
2023/04/06 00:28:03;;;;;;;4.90;3.70;;;1.10;99.90;;;;;;5034089;28;20287;-80
2023/04/06 00:30:29;;;;;;;4.93;3.40;;;1.10;99.90;;;;;;5015937;28;20720;-80
2023/04/06 00:32:54;;;;;;;5.23;3.37;;;1.10;99.90;;;;;;5034430;28;20182;-80
2023/04/06 00:35:21;;;;;;;5.53;3.60;;;1.10;99.90;;;;;;5034233;28;20179;-81
2023/04/06 00:37:48;;;;;;;4.70;3.80;;;1.10;99.90;;;;;;5016171;28;20215;-80
2023/04/06 00:40:13;;;;;;;4.90;3.73;;;1.00;99.90;;;;;;5015716;28;20254;-80
2023/04/06 00:42:39;;;;;;;4.27;3.47;;;0.90;99.90;;;;;;5016626;28;20273;-80
2023/04/06 00:45:05;;;;;;;3.90;3.50;;;0.80;99.90;;;;;;5016470;28;20236;-81
2023/04/06 00:47:31;;;;;;;5.00;3.70;;;0.70;99.90;;;;;;5016044;28;20201;-80
2023/04/06 00:49:56;;;;;;;4.40;3.50;;;0.60;99.90;;;;;;5033642;28;20183;-80
2023/04/06 00:52:22;;;;;;;4.27;3.40;;;0.70;99.90;;;;;;5016143;28;20265;-81
2023/04/06 00:54:49;;;;;;;5.20;3.93;;;0.60;99.90;;;;;;5016114;28;20207;-81
2023/04/06 00:57:15;;;;;;;5.03;3.97;;;0.60;99.90;;;;;;5016096;28;20277;-81
2023/04/06 00:59:41;;;;;;;5.27;3.50;;;0.70;99.90;;;;;;5015703;28;20633;-81
2023/04/06 01:02:07;;;;;;;4.40;4.00;;;0.70;99.90;;;;;;5015678;28;20171;-80
2023/04/06 01:04:33;;;;;;;6.60;3.90;;;0.70;99.90;;;;;;5015966;28;20171;-80
2023/04/06 01:06:59;;;;;;;5.07;3.97;;;0.70;99.90;;;;;;5033636;28;20199;-80
2023/04/06 01:09:24;;;;;;;5.00;3.73;;;0.60;99.90;;;;;;5016128;28;20569;-80
2023/04/06 01:11:50;;;;;;;4.10;3.70;;;0.60;99.90;;;;;;5015541;28;20177;-80
2023/04/06 01:14:16;;;;;;;5.37;3.90;;;0.60;99.90;;;;;;5015943;28;20251;-81
2023/04/06 01:16:42;;;;;;;4.93;4.00;;;0.60;99.90;;;;;;5015480;28;20198;-81
2023/04/06 01:19:09;;;;;;;4.43;3.47;;;0.60;99.90;;;;;;5015338;28;20603;-80
2023/04/06 01:21:36;;;;;;;4.87;3.80;;;0.60;99.90;;;;;;5015197;28;20257;-81
2023/04/06 01:24:02;;;;;;;5.07;3.47;;;0.60;99.90;;;;;;5033163;28;20657;-81
2023/04/06 01:26:29;;;;;;;5.63;3.50;;;0.60;99.90;;;;;;5015576;28;20214;-81
2023/04/06 01:28:55;;;;;;;5.43;4.30;;;0.60;99.90;;;;;;5033274;28;20515;-80
2023/04/06 01:31:21;;;;;;;4.43;3.47;;;0.60;99.90;;;;;;5015111;28;20629;-80
2023/04/06 01:33:47;;;;;;;4.97;3.70;;;0.40;99.90;;;;;;5015574;28;20542;-81
2023/04/06 01:36:12;;;;;;;4.87;3.70;;;0.40;99.90;;;;;;5033036;28;20660;-81
2023/04/06 01:38:38;;;;;;;5.37;3.80;;;0.30;99.90;;;;;;5015510;28;20167;-80
2023/04/06 01:41:04;;;;;;;5.13;3.57;;;0.30;99.90;;;;;;5014634;28;20763;-80
2023/04/06 01:43:29;;;;;;;4.30;3.33;;;0.40;99.90;;;;;;5033143;28;20261;-80
2023/04/06 01:45:55;;;;;;;5.00;3.70;;;0.40;99.90;;;;;;5015485;28;20269;-80
2023/04/06 01:48:20;;;;;;;5.07;3.77;;;0.40;99.90;;;;;;5015332;28;20259;-80
2023/04/06 01:50:46;;;;;;;4.73;3.90;;;0.30;99.90;;;;;;5032549;28;20178;-80
2023/04/06 01:53:12;;;;;;;5.07;4.00;;;0.30;99.90;;;;;;5031257;28;20174;-80
2023/04/06 01:55:37;;;;;;;4.20;3.60;;;0.30;99.90;;;;;;5032547;28;20178;-80
2023/04/06 01:58:03;;;;;;;6.30;3.80;;;0.40;99.90;;;;;;5015065;28;20194;-80
2023/04/06 02:00:28;;;;;;;4.83;3.97;;;0.50;99.90;;;;;;5032346;28;20177;-80
2023/04/06 02:02:54;;;;;;;5.33;3.63;;;0.30;99.90;;;;;;5032787;28;20166;-80
2023/04/06 02:05:20;;;;;;;5.97;4.07;;;0.20;99.90;;;;;;5032830;28;20186;-80
2023/04/06 02:07:46;;;;;;;5.37;3.67;;;0.20;99.90;;;;;;5014769;28;20707;-80
2023/04/06 02:10:14;;;;;;;6.50;3.90;;;0.20;99.90;;;;;;5014456;28;20587;-80
2023/04/06 02:12:40;;;;;;;4.43;3.40;;;0.20;99.90;;;;;;5032720;28;20224;-80
2023/04/06 02:15:06;;;;;;;4.27;3.60;;;0.20;99.90;;;;;;5014767;28;20174;-80
2023/04/06 02:17:32;;;;;;;5.20;3.50;;;0.20;99.90;;;;;;5032268;28;20208;-80
2023/04/06 02:19:57;;;;;;;4.60;4.00;;;0.10;99.90;;;;;;5014572;28;20170;-80
2023/04/06 02:22:23;;;;;;;6.37;4.10;;;0.10;99.90;;;;;;5015109;28;20224;-81
2023/04/06 02:24:48;;;;;;;5.77;4.10;;;0.10;99.90;;;;;;5014959;28;20174;-80
2023/04/06 02:27:15;;;;;;;5.50;4.20;;;0.10;99.90;;;;;;5014749;28;20213;-80
2023/04/06 02:29:40;;;;;;;6.70;3.97;;;0.10;99.90;;;;;;5014233;28;20174;-79
2023/04/06 02:32:07;;;;;;;5.20;3.80;;;0.00;99.90;;;;;;5014878;28;20641;-80
2023/04/06 02:34:32;;;;;;;4.93;3.60;;;0.10;99.90;;;;;;5018637;28;20219;-80
2023/04/06 02:36:58;;;;;;;4.93;3.73;;;0.10;99.90;;;;;;5036427;28;20352;-80
2023/04/06 02:39:24;;;;;;;4.97;3.80;;;0.10;99.90;;;;;;5018551;28;20655;-81
2023/04/06 02:41:50;;;;;;;6.73;4.00;;;0.00;99.90;;;;;;5018218;28;20297;-81
2023/04/06 02:44:15;;;;;;;5.37;3.90;;;-0.10;99.90;;;;;;5018544;28;20261;-80
2023/04/06 02:46:41;;;;;;;4.03;3.43;;;-0.10;99.90;;;;;;5018293;28;20241;-79
2023/04/06 02:49:06;;;;;;;4.67;3.67;;;-0.20;99.90;;;;;;5018427;28;20202;-80
2023/04/06 02:51:33;;;;;;;5.70;3.83;;;-0.20;99.90;;;;;;5017856;28;20185;-80
2023/04/06 02:53:59;;;;;;;4.63;3.47;;;-0.20;99.90;;;;;;5018276;28;20185;-80
2023/04/06 02:56:24;;;;;;;5.07;3.70;;;-0.30;99.90;;;;;;5036008;28;20209;-80
2023/04/06 02:58:50;;;;;;;3.60;3.20;;;-0.40;99.90;;;;;;5036038;28;20170;-80
2023/04/06 03:01:16;;;;;;;4.90;3.57;;;-0.40;99.90;;;;;;5017617;28;20189;-80
2023/04/06 03:03:42;;;;;;;6.77;4.30;;;-0.40;99.90;;;;;;5018037;28;20220;-80
2023/04/06 03:06:07;;;;;;;5.73;3.77;;;-0.40;99.90;;;;;;5017901;28;20573;-80
2023/04/06 03:08:33;;;;;;;4.30;3.60;;;-0.40;99.90;;;;;;5035938;28;20194;-80
2023/04/06 03:10:59;;;;;;;7.00;3.80;;;-0.40;99.90;;;;;;5017470;28;20524;-80
2023/04/06 03:13:24;;;;;;;5.50;3.77;;;-0.40;99.90;;;;;;5017787;28;20166;-80
2023/04/06 03:15:50;;;;;;;5.37;3.80;;;-0.40;99.90;;;;;;5017777;28;20180;-79
2023/04/06 03:18:21;;;;;;;4.67;3.90;;;-0.40;99.90;;;;;;5017995;28;20276;-80
2023/04/06 03:20:47;;;;;;;4.90;3.90;;;-0.50;99.90;;;;;;5017145;28;20237;-80
2023/04/06 03:23:12;;;;;;;5.23;3.87;;;-0.50;99.90;;;;;;5035709;28;20279;-80
2023/04/06 03:25:39;;;;;;;5.53;4.10;;;-0.40;99.90;;;;;;5017639;28;20174;-81
2023/04/06 03:28:05;;;;;;;6.60;4.30;;;-0.50;99.90;;;;;;5017799;28;20210;-80
2023/04/06 03:30:30;;;;;;;6.13;3.90;;;-0.50;99.90;;;;;;5035042;28;20228;-79
2023/04/06 03:32:56;;;;;;;5.70;3.80;;;-0.60;99.90;;;;;;5017544;28;20178;-80
2023/04/06 03:35:22;;;;;;;6.57;4.07;;;-0.60;99.90;;;;;;5017518;28;20216;-80
2023/04/06 03:37:47;;;;;;;5.93;4.20;;;-0.70;99.90;;;;;;5035059;28;20210;-80
2023/04/06 03:40:13;;;;;;;7.00;4.27;;;-0.60;99.90;;;;;;5017301;28;20179;-80
2023/04/06 03:42:39;;;;;;;5.70;3.77;;;-0.60;99.90;;;;;;5034767;28;20178;-80
2023/04/06 03:45:05;;;;;;;4.80;3.97;;;-0.60;99.90;;;;;;5034976;28;20166;-80
2023/04/06 03:47:30;;;;;;;7.10;3.63;;;-0.50;99.90;;;;;;5016956;28;20197;-79
2023/04/06 03:49:56;;;;;;;5.47;4.10;;;-0.50;99.90;;;;;;5016789;28;20564;-80
2023/04/06 03:52:22;;;;;;;5.57;4.00;;;-0.50;99.90;;;;;;5017144;28;20180;-80
2023/04/06 03:54:48;;;;;;;5.20;4.10;;;-0.50;99.90;;;;;;5017169;28;20178;-80
2023/04/06 03:57:14;;;;;;;4.90;3.67;;;-0.60;99.90;;;;;;5034897;28;20205;-80
2023/04/06 03:59:40;;;;;;;5.50;3.70;;;-0.60;99.90;;;;;;5016633;28;20181;-80
2023/04/06 04:02:05;;;;;;;5.03;4.13;;;-0.50;99.90;;;;;;5017062;28;20170;-80
2023/04/06 04:04:31;;;;;;;6.73;4.17;;;-0.50;99.90;;;;;;5017231;28;20178;-80
2023/04/06 04:06:57;;;;;;;6.27;3.83;;;-0.60;99.90;;;;;;5017152;28;20200;-80
2023/04/06 04:09:22;;;;;;;4.40;3.97;;;-0.50;99.90;;;;;;5034568;28;20174;-81
2023/04/06 04:11:48;;;;;;;5.00;3.93;;;-0.50;99.90;;;;;;5016653;28;20232;-80
2023/04/06 04:14:14;;;;;;;8.73;4.30;;;-0.60;99.90;;;;;;5014576;28;20228;-80
2023/04/06 04:16:41;;;;;;;5.60;4.00;;;-0.50;99.90;;;;;;5022707;28;20197;-80
2023/04/06 04:19:06;;;;;;;6.57;4.20;;;-0.60;99.90;;;;;;5054418;28;20179;-80
2023/04/06 04:21:32;;;;;;;5.27;4.07;;;-0.50;99.90;;;;;;5053942;28;20176;-80
2023/04/06 04:23:58;;;;;;;5.40;3.93;;;-0.60;99.90;;;;;;5054343;28;20268;-81
2023/04/06 04:26:23;;;;;;;7.23;4.00;;;-0.70;99.90;;;;;;5037668;28;20205;-79
2023/04/06 04:28:49;;;;;;;5.57;4.00;;;-0.70;99.90;;;;;;5052862;28;20196;-81
2023/04/06 04:31:17;;;;;;;5.87;4.40;;;-0.70;99.90;;;;;;5053875;28;20188;-80
2023/04/06 04:33:42;;;;;;;5.53;4.20;;;-0.70;99.90;;;;;;5054028;28;20189;-80
2023/04/06 04:36:08;;;;;;;6.23;4.47;;;-0.80;99.90;;;;;;5035979;28;20204;-80
2023/04/06 04:38:34;;;;;;;6.93;4.17;;;-0.80;99.90;;;;;;5036436;28;20169;-81
2023/04/06 04:41:00;;;;;;;6.87;4.10;;;-0.80;99.90;;;;;;5053729;28;20255;-81
2023/04/06 04:43:25;;;;;;;5.60;4.30;;;-0.90;99.90;;;;;;5053702;28;20173;-80
2023/04/06 04:45:52;;;;;;;5.83;3.80;;;-0.90;99.90;;;;;;5035933;28;20169;-80
2023/04/06 04:48:17;;;;;;;6.43;3.90;;;-0.80;99.90;;;;;;5054066;28;20172;-81
2023/04/06 04:50:43;;;;;;;4.67;3.80;;;-0.80;99.90;;;;;;5053401;28;20268;-88
2023/04/06 04:53:09;;;;;;;5.43;3.90;;;-0.90;99.90;;;;;;5054075;28;20200;-86
2023/04/06 04:55:34;;;;;;;6.43;4.37;;;-0.90;99.90;;;;;;5052910;28;20666;-88
2023/04/06 04:58:00;;;;;;;5.63;4.10;;;-1.00;99.90;;;;;;5053448;28;20192;-88
2023/04/06 05:00:26;;;;;;;6.03;4.50;;;-1.10;99.90;;;;;;5035131;28;20176;-88
2023/04/06 05:02:51;;;;;;;5.47;4.40;;;-1.10;99.90;;;;;;5053646;28;20173;-89
2023/04/06 05:05:17;;;;;;;6.40;4.97;;;-1.20;99.90;;;;;;5035472;28;20207;-88
2023/04/06 05:07:43;;;;;;;5.77;4.47;;;-1.10;99.90;;;;;;5053509;28;20254;-89
2023/04/06 05:10:09;;;;;;;5.13;4.10;;;-1.10;99.90;;;;;;5034907;28;20208;-89
2023/04/06 05:12:35;;;;;;;5.93;4.37;;;-1.00;99.90;;;;;;5035349;28;20188;-86
2023/04/06 05:15:00;;;;;;;5.50;4.30;;;-1.00;99.90;;;;;;5051891;28;20230;-85
2023/04/06 05:17:26;;;;;;;6.83;4.60;;;-1.20;99.90;;;;;;5053317;28;20290;-88
2023/04/06 05:19:52;;;;;;;7.00;4.83;;;-1.20;99.90;;;;;;5035057;28;20177;-88
2023/04/06 05:22:17;;;;;;;5.07;3.80;;;-1.10;99.90;;;;;;5035342;28;20173;-88
2023/04/06 05:24:44;;;;;;;7.17;4.60;;;-1.10;99.90;;;;;;5028387;28;20207;-87
2023/04/06 05:27:09;;;;;;;6.33;4.80;;;-1.10;99.90;;;;;;5033061;28;20219;-87
2023/04/06 05:29:35;;;;;;;6.37;4.40;;;-1.10;99.90;;;;;;5015034;28;20181;-87
2023/04/06 05:32:01;;;;;;;6.17;4.60;;;-1.10;99.90;;;;;;5032789;28;20239;-88
2023/04/06 05:34:27;;;;;;;6.80;4.83;;;-1.10;99.90;;;;;;5033036;28;20243;-87
2023/04/06 05:36:53;;;;;;;7.03;4.70;;;-1.00;99.90;;;;;;5032893;28;20205;-87
2023/04/06 05:39:18;;;;;;;6.87;5.07;;;-1.00;99.90;;;;;;5015178;28;20187;-87
2023/04/06 05:41:44;;;;;;;5.17;4.40;;;-0.90;99.90;;;;;;5014957;28;20178;-86
2023/04/06 05:44:10;;;;;;;6.20;4.70;;;-0.80;99.90;;;;;;5032761;28;20601;-87
2023/04/06 05:46:35;;;;;;;6.40;4.60;;;-0.80;99.90;;;;;;5015140;28;20228;-87
2023/04/06 05:49:01;;;;;;;8.73;4.77;;;-0.80;99.90;;;;;;5033051;28;20177;-87
2023/04/06 05:51:27;;;;;;;6.20;4.90;;;-0.80;99.90;;;;;;5032279;28;20181;-86
2023/04/06 05:53:52;;;;;;;8.03;5.13;;;-0.80;99.90;;;;;;5032671;28;20239;-88
2023/04/06 05:56:18;;;;;;;7.60;4.87;;;-0.70;99.90;;;;;;5015105;28;20209;-87
2023/04/06 05:58:44;;;;;;;7.43;5.10;;;-0.50;99.90;;;;;;5032688;28;20177;-88
2023/04/06 06:01:10;;;;;;;8.87;5.43;;;-0.40;99.90;;;;;;5014699;28;20178;-88
2023/04/06 06:03:35;;;;;;;7.80;5.30;;;-0.30;99.90;;;;;;5014881;28;20230;-87
2023/04/06 06:06:02;;;;;;;7.03;5.10;;;-0.20;99.90;;;;;;5032670;28;20181;-87
2023/04/06 06:08:29;;;;;;;7.33;5.00;;;-0.30;99.90;;;;;;5013651;28;20192;-88
2023/04/06 06:10:55;;;;;;;5.97;5.00;;;-0.30;99.90;;;;;;5029064;28;20192;-88
2023/04/06 06:13:21;;;;;;;6.80;4.93;;;-0.30;99.90;;;;;;5027422;28;20224;-88
2023/04/06 06:15:47;;;;;;;8.50;5.40;;;-0.20;99.90;;;;;;5032581;28;20327;-86
2023/04/06 06:18:13;;;;;;;6.33;5.20;;;-0.30;99.90;;;;;;5014869;28;20672;-88
2023/04/06 06:20:38;;;;;;;6.23;4.97;;;-0.30;99.90;;;;;;5014202;28;20594;-88
2023/04/06 06:23:04;;;;;;;6.80;5.27;;;-0.30;99.90;;;;;;5014696;28;20265;-90
2023/04/06 06:25:32;;;;;;;8.60;5.47;;;-0.30;99.90;;;;;;5014935;28;20210;-88
2023/04/06 06:27:58;;;;;;;9.20;5.83;;;-0.20;99.90;;;;;;5014785;28;20217;-89
2023/04/06 06:30:24;;;;;;;8.97;6.40;;;-0.10;99.90;;;;;;5032175;28;20181;-89
2023/04/06 06:32:50;;;;;;;7.70;5.93;;;0.00;99.90;;;;;;5033388;28;20210;-87
2023/04/06 06:35:16;;;;;;;8.93;6.00;;;0.20;99.90;;;;;;5014256;28;20182;-86
2023/04/06 06:37:41;;;;;;;8.43;5.97;;;0.20;99.90;;;;;;5027126;28;20201;-87
2023/04/06 06:40:08;;;;;;;7.67;6.07;;;0.30;99.90;;;;;;5051846;28;20173;-87
2023/04/06 06:42:34;;;;;;;7.90;6.00;;;0.40;99.90;;;;;;5023658;28;20194;-86
2023/04/06 06:45:00;;;;;;;7.10;5.70;;;0.40;99.90;;;;;;5014412;28;20174;-86
2023/04/06 06:47:26;;;;;;;8.40;5.70;;;0.60;99.90;;;;;;5031713;28;20685;-86
2023/04/06 06:49:51;;;;;;;8.37;5.83;;;0.70;99.90;;;;;;5014096;28;20177;-87
2023/04/06 06:52:17;;;;;;;8.67;6.03;;;0.90;99.90;;;;;;5032117;28;20202;-86
2023/04/06 06:54:43;;;;;;;8.77;6.20;;;1.00;99.90;;;;;;5029450;28;20180;-87
2023/04/06 06:57:09;;;;;;;11.90;6.27;;;1.10;99.90;;;;;;5030787;28;20209;-83
2023/04/06 06:59:34;;;;;;;10.70;6.57;;;1.20;99.90;;;;;;5031612;28;20174;-86
2023/04/06 07:02:00;;;;;;;9.03;6.43;;;1.80;99.90;;;;;;5031659;28;20543;-87
2023/04/06 07:04:26;;;;;;;9.10;6.20;;;2.40;99.90;;;;;;5016256;28;20185;-88
2023/04/06 07:06:52;;;;;;;8.87;6.17;;;2.60;99.90;;;;;;5014133;28;20203;-88
2023/04/06 07:09:18;;;;;;;8.87;6.17;;;2.60;99.90;;;;;;5014182;28;20664;-87
2023/04/06 07:11:44;;;;;;;7.80;5.63;;;2.40;99.90;;;;;;5036483;28;20215;-88
2023/04/06 07:14:11;;;;;;;8.53;6.20;;;2.30;99.90;;;;;;5051826;28;20219;-88
2023/04/06 07:16:37;;;;;;;8.63;6.60;;;2.20;99.90;;;;;;5033879;28;20205;-88
2023/04/06 07:19:02;;;;;;;7.53;6.00;;;2.20;99.90;;;;;;5035179;28;20170;-88
2023/04/06 07:21:28;;;;;;;8.37;6.47;;;2.30;99.90;;;;;;5019095;28;20170;-88
2023/04/06 07:23:54;;;;;;;9.17;6.73;;;2.30;99.90;;;;;;5007644;28;20171;-87
2023/04/06 07:26:20;;;;;;;8.50;6.47;;;2.50;99.90;;;;;;5023790;28;20257;-88
2023/04/06 07:28:45;;;;;;;14.00;6.77;;;2.60;99.90;;;;;;5004251;28;20185;-89
2023/04/06 07:31:11;;;;;;;8.30;6.20;;;2.70;99.90;;;;;;5013195;28;20170;-87
2023/04/06 07:33:37;;;;;;;11.33;6.93;;;2.90;99.90;;;;;;5015635;28;20187;-88
2023/04/06 07:36:02;;;;;;;8.50;6.23;;;3.00;99.90;;;;;;5008668;28;20215;-89
2023/04/06 07:38:28;;;;;;;8.57;6.47;;;3.20;99.90;;;;;;5013921;28;20193;-87
2023/04/06 07:40:54;;;;;;;7.83;6.47;;;3.40;99.90;;;;;;5002624;28;20181;-88
2023/04/06 07:43:19;;;;;;;9.17;6.63;;;3.50;99.90;;;;;;5014862;28;20175;-88
2023/04/06 07:45:45;;;;;;;11.33;7.57;;;3.60;99.90;;;;;;5033774;28;20265;-88
2023/04/06 07:48:11;;;;;;;11.30;7.13;;;3.80;99.90;;;;;;5022465;28;20183;-89
2023/04/06 07:50:36;;;;;;;10.13;7.30;;;3.90;99.90;;;;;;5013145;28;20205;-89
2023/04/06 07:53:02;;;;;;;9.13;7.30;;;4.00;99.90;;;;;;5007558;28;20186;-88
2023/04/06 07:55:28;;;;;;;10.30;7.30;;;4.20;99.90;;;;;;5008966;28;20177;-88
2023/04/06 07:57:53;;;;;;;9.80;7.00;;;4.40;99.90;;;;;;5007254;28;20205;-87
2023/04/06 08:00:20;;;;;;;9.20;7.33;;;4.50;99.90;;;;;;5014953;28;20561;-88
2023/04/06 08:02:45;;;;;;;10.87;7.43;;;4.70;99.90;;;;;;5016846;28;20177;-88
2023/04/06 08:05:11;;;;;;;13.03;7.67;;;4.80;99.90;;;;;;5047671;28;20173;-88
2023/04/06 08:07:36;;;;;;;11.93;6.97;;;5.10;99.90;;;;;;5004290;28;20206;-88
2023/04/06 08:10:03;;;;;;;11.67;7.13;;;5.30;99.90;;;;;;5034059;28;20181;-86
2023/04/06 08:12:28;;;;;;;9.43;6.93;;;5.40;99.90;;;;;;5039604;28;20181;-87
2023/04/06 08:14:54;;;;;;;8.53;6.77;;;5.60;99.90;;;;;;5027541;28;20541;-88
2023/04/06 08:17:19;;;;;;;9.63;6.97;;;5.80;99.90;;;;;;5001576;28;20199;-87
2023/04/06 08:19:45;;;;;;;9.37;6.97;;;6.00;99.90;;;;;;5026240;28;20225;-88
2023/04/06 08:22:11;;;;;;;10.33;6.90;;;6.20;99.90;;;;;;5028399;28;20170;-87
2023/04/06 08:24:37;;;;;;;10.37;7.10;;;6.40;99.90;;;;;;5009607;28;20175;-88
2023/04/06 08:27:02;;;;;;;6.87;5.50;;;6.60;99.90;;;;;;5019496;28;20708;-87
2023/04/06 08:29:28;;;;;;;9.90;6.43;;;7.00;71.40;;;;;;5030906;28;20188;-86
2023/04/06 08:31:54;;;;;;;8.17;6.10;;;7.30;74.90;;;;;;5009432;28;20557;-88
2023/04/06 08:34:21;;;;;;;7.00;5.37;;;7.50;55.80;;;;;;5023940;28;20191;-86
2023/04/06 08:36:46;;;;;;;7.93;5.93;;;7.70;51.70;;;;;;5007658;28;20676;-84
2023/04/06 08:39:12;;;;;;;8.20;6.03;;;7.90;51.90;;;;;;5027116;28;20262;-87
2023/04/06 08:41:38;;;;;;;8.50;5.97;;;8.00;46.40;;;;;;5011718;28;20690;-86
2023/04/06 08:44:04;;;;;;;11.53;6.40;;;8.10;47.60;;;;;;5009892;28;20209;-87
2023/04/06 08:46:31;;;;;;;8.70;5.93;;;8.20;41.70;;;;;;5010992;28;20194;-86
2023/04/06 08:48:58;;;;;;;7.80;5.87;;;8.40;35.00;;;;;;5011672;28;20179;-86
2023/04/06 08:51:26;;;;;;;8.60;5.93;;;8.40;33.20;;;;;;5012003;28;20175;-86
2023/04/06 08:53:54;;;;;;;8.17;5.80;;;8.50;34.70;;;;;;5009369;28;20209;-85
2023/04/06 08:56:25;;;;;;;7.87;5.70;;;8.60;32.10;;;;;;5008169;28;20193;-85
2023/04/06 08:58:52;;;;;;;9.50;6.07;;;8.70;25.70;;;;;;5023595;28;20159;-86
2023/04/06 09:01:22;;;;;;;6.63;5.43;;;8.80;24.60;;;;;;5026353;28;20233;-86
2023/04/06 09:03:50;;;;;;;8.03;5.77;;;8.80;22.10;;;;;;5012017;28;20213;-86
2023/04/06 09:06:16;;;;;;;6.53;5.50;;;8.90;22.40;;;;;;5017003;28;20225;-87
2023/04/06 09:08:42;;;;;;;8.50;5.73;;;9.00;22.30;;;;;;5007468;28;20265;-85
2023/04/06 09:11:08;;;;;;;8.90;5.80;;;9.30;21.30;;;;;;5014833;28;20190;-84
2023/04/06 09:13:59;;;;;;;7.00;5.70;;;9.50;21.60;;;;;;5035209;28;20174;-85
2023/04/06 09:16:25;;;;;;;8.40;5.60;;;9.60;18.70;;;;;;5002604;28;20674;-82
2023/04/06 09:18:51;;;;;;;7.93;5.77;;;9.70;19.70;;;;;;5018279;28;20191;-85
2023/04/06 09:21:19;;;;;;;7.20;5.70;;;9.60;17.60;;;;;;5011158;28;20257;-87
2023/04/06 09:23:45;;;;;;;7.03;5.20;;;9.80;20.40;;;;;;5015542;28;20563;-87
2023/04/06 09:26:15;;;;;;;7.90;5.60;;;9.90;15.80;;;;;;5032999;28;20664;-84
2023/04/06 09:28:54;;;;;;;7.77;5.90;;;9.90;12.60;;;;;;5015469;28;20181;-86
2023/04/06 09:31:23;;;;;;;9.73;6.00;;;9.80;12.90;;;;;;5032118;28;20176;-85
2023/04/06 09:33:49;;;;;;;8.60;6.13;;;9.90;11.30;;;;;;5015244;28;20207;-85
2023/04/06 09:36:15;;;;;;;9.30;5.53;;;10.00;12.90;;;;;;5033803;28;20209;-83
2023/04/06 09:38:55;;;;;;;9.60;5.87;;;10.00;11.00;;;;;;5015933;28;20243;-84
2023/04/06 09:41:32;;;;;;;7.50;5.53;;;10.20;14.00;;;;;;5015041;28;20173;-83
2023/04/06 09:44:03;;;;;;;7.00;5.07;;;10.50;13.30;;;;;;5015272;28;20613;-84
2023/04/06 09:46:33;;;;;;;6.80;5.27;;;10.60;11.40;;;;;;5003133;28;20296;-81
2023/04/06 09:49:01;;;;;;;7.87;5.47;;;10.80;10.20;;;;;;5018045;28;20180;-83
2023/04/06 09:52:00;;;;;;;7.43;5.73;;;10.70;9.30;;;;;;5019111;28;20237;-85
2023/04/06 09:54:29;;;;;;;6.63;5.50;;;10.80;8.30;;;;;;5015365;28;20189;-82
2023/04/06 09:57:11;;;;;;;14.20;7.73;;;10.80;7.80;;;;;;5027563;28;20205;-84
2023/04/06 09:59:51;;;;;;;7.37;5.60;;;10.90;13.90;;;;;;5020900;28;20172;-81
2023/04/06 10:02:48;;;;;;;8.50;5.80;;;11.10;12.40;;;;;;5018897;28;20645;-82
2023/04/06 10:05:27;;;;;;;7.37;5.70;;;11.10;8.60;;;;;;5032667;28;20182;-82
2023/04/06 10:07:55;;;;;;;9.67;5.93;;;11.00;6.80;;;;;;5015281;28;20206;-85
2023/04/06 10:10:22;;;;;;;7.03;5.40;;;11.00;6.70;;;;;;5032089;28;20182;-82
2023/04/06 10:12:49;;;;;;;7.43;5.67;;;11.20;5.20;;;;;;5032464;28;20220;-83
2023/04/06 10:15:15;;;;;;;6.87;5.57;;;11.40;7.70;;;;;;5016470;28;20200;-83
2023/04/06 10:17:41;;;;;;;9.03;6.33;;;11.60;6.60;;;;;;5029517;28;20205;-83
2023/04/06 10:20:11;;;;;;;9.10;5.87;;;11.50;4.10;;;;;;4999960;28;20166;-84
2023/04/06 10:22:52;;;;;;;7.20;6.10;;;11.50;7.60;;;;;;5022761;28;20196;-84
2023/04/06 10:25:27;;;;;;;8.80;6.20;;;11.50;2.20;;;;;;5017273;28;20532;-84
2023/04/06 10:27:59;;;;;;;11.53;5.60;;;11.70;4.00;;;;;;5036176;28;20268;-84
2023/04/06 10:30:26;;;;;;;7.83;5.73;;;11.40;2.50;;;;;;5027456;28;20228;-85
2023/04/06 10:32:51;;;;;;;10.20;6.20;;;11.30;2.00;;;;;;5030656;28;20243;-86
2023/04/06 10:35:17;;;;;;;9.60;6.13;;;11.30;3.90;;;;;;5024509;28;20590;-81
2023/04/06 10:38:03;;;;;;;8.33;6.07;;;11.40;2.00;;;;;;5033167;28;20206;-82
2023/04/06 10:40:29;;;;;;;7.50;5.80;;;11.60;3.80;;;;;;5019716;28;20241;-82
2023/04/06 10:42:55;;;;;;;8.40;6.30;;;11.80;2.30;;;;;;5035491;28;20202;-82
2023/04/06 10:45:26;;;;;;;9.40;6.03;;;12.20;24.80;;;;;;5021648;28;20615;-82
2023/04/06 10:47:55;;;;;;;9.27;6.37;;;12.40;8.30;;;;;;5023324;28;20194;-83
2023/04/06 10:50:22;;;;;;;8.13;5.67;;;12.50;9.60;;;;;;5020391;28;20179;-83
2023/04/06 10:53:02;;;;;;;7.57;5.87;;;12.40;5.20;;;;;;5033312;28;20264;-83
2023/04/06 10:55:28;;;;;;;8.07;5.70;;;12.40;6.60;;;;;;5030994;28;20235;-82
2023/04/06 10:57:54;;;;;;;10.00;6.20;;;12.50;8.20;;;;;;5055867;28;20255;-83
2023/04/06 11:00:20;;;;;;;8.90;5.87;;;12.80;2.90;;;;;;5039880;28;20183;-83
2023/04/06 11:02:46;;;;;;;8.50;5.73;;;12.80;5.10;;;;;;5048516;28;20173;-83
2023/04/06 11:05:15;;;;;;;8.73;6.37;;;12.80;5.90;;;;;;5050122;28;20181;-82
2023/04/06 11:07:41;;;;;;;8.13;5.80;;;13.10;13.10;;;;;;5020732;28;20221;-81
2023/04/06 11:10:08;;;;;;;8.07;5.50;;;13.00;6.10;;;;;;5036899;28;20183;-83
2023/04/06 11:12:34;;;;;;;7.87;6.00;;;13.50;16.30;;;;;;5022193;28;20228;-83
2023/04/06 11:15:06;;;;;;;7.70;5.73;;;13.50;6.10;;;;;;5024004;28;20175;-80
2023/04/06 11:17:35;;;;;;;8.87;6.27;;;13.50;2.00;;;;;;5010627;28;20210;-82
2023/04/06 11:20:02;;;;;;;8.33;5.77;;;13.30;2.90;;;;;;5016999;28;20174;-82
2023/04/06 11:22:28;;;;;;;10.70;6.53;;;13.40;3.10;;;;;;5035928;28;20648;-82
2023/04/06 11:25:05;;;;;;;8.40;6.23;;;13.50;6.30;;;;;;5036589;28;20269;-83
2023/04/06 11:27:31;;;;;;;8.40;6.17;;;13.60;1.40;;;;;;5041766;28;20712;-84
2023/04/06 11:29:59;;;;;;;6.77;5.47;;;13.60;3.20;;;;;;5043859;28;20185;-80
2023/04/06 11:32:24;;;;;;;6.67;5.50;;;13.70;3.30;;;;;;5022078;28;20231;-81
2023/04/06 11:34:50;;;;;;;6.93;5.43;;;13.80;1.00;;;;;;5026624;28;20196;-83
2023/04/06 11:37:16;;;;;;;6.17;5.40;;;13.90;1.00;;;;;;5047183;28;20718;-80
2023/04/06 11:39:52;;;;;;;6.60;5.60;;;13.90;1.00;;;;;;5033805;28;20186;-83
2023/04/06 11:42:25;;;;;;;8.87;5.73;;;13.80;1.00;;;;;;5034714;28;20166;-79
2023/04/06 11:44:55;;;;;;;10.83;6.50;;;13.60;1.00;;;;;;5020539;28;20172;-79
2023/04/06 11:47:32;;;;;;;7.47;6.03;;;13.80;1.00;;;;;;5025819;28;20206;-80
2023/04/06 11:50:12;;;;;;;6.63;5.87;;;14.00;1.00;;;;;;5036314;28;20542;-83
2023/04/06 11:52:39;;;;;;;7.40;5.77;;;13.70;1.00;;;;;;5037916;28;20183;-87
2023/04/06 11:55:18;;;;;;;7.00;5.67;;;13.70;1.00;;;;;;5054667;28;20184;-87
2023/04/06 11:57:45;;;;;;;7.83;5.57;;;13.70;1.00;;;;;;5036363;28;20359;-86
2023/04/06 12:00:11;;;;;;;8.43;6.03;;;13.70;1.00;;;;;;5034415;28;20170;-88
2023/04/06 12:02:38;;;;;;;7.57;5.50;;;13.70;1.00;;;;;;5036322;28;20174;-87
2023/04/06 12:05:05;;;;;;;8.53;5.93;;;13.90;1.00;;;;;;5035319;28;20174;-87
2023/04/06 12:07:32;;;;;;;7.47;5.67;;;13.80;1.00;;;;;;5035799;28;20245;-87
2023/04/06 12:10:02;;;;;;;8.50;6.10;;;14.20;1.10;;;;;;5035780;28;20185;-87
2023/04/06 12:12:28;;;;;;;7.13;5.17;;;14.50;1.00;;;;;;5028032;28;20184;-87
2023/04/06 12:14:54;;;;;;;5.83;5.23;;;14.60;1.00;;;;;;5036409;28;20184;-86
2023/04/06 12:17:20;;;;;;;7.20;5.83;;;14.40;1.00;;;;;;5053847;28;20625;-86
2023/04/06 12:19:46;;;;;;;6.37;5.37;;;14.50;1.00;;;;;;5053180;28;20708;-87
2023/04/06 12:22:12;;;;;;;7.33;5.80;;;14.60;1.00;;;;;;5036195;28;20170;-87
2023/04/06 12:24:37;;;;;;;6.10;5.27;;;14.90;1.00;;;;;;5053945;28;20173;-87
2023/04/06 12:27:03;;;;;;;6.37;5.20;;;15.10;1.00;;;;;;5035682;28;20691;-87
2023/04/06 12:29:29;;;;;;;7.47;5.50;;;14.90;1.00;;;;;;5036066;28;20182;-86
2023/04/06 12:31:54;;;;;;;6.43;5.60;;;14.40;1.00;;;;;;5035419;28;20169;-87
2023/04/06 12:34:20;;;;;;;6.60;5.53;;;14.20;1.00;;;;;;5053738;28;20181;-87
2023/04/06 12:36:46;;;;;;;5.90;4.90;;;14.20;1.00;;;;;;5053727;28;20229;-87
2023/04/06 12:39:11;;;;;;;7.77;5.20;;;14.00;1.00;;;;;;5053666;28;20165;-87
2023/04/06 12:41:40;;;;;;;6.40;5.33;;;14.20;1.00;;;;;;5053101;28;20548;-87
2023/04/06 12:44:05;;;;;;;6.10;4.77;;;14.20;1.00;;;;;;5053403;28;20245;-87
2023/04/06 12:46:31;;;;;;;6.23;5.00;;;14.20;1.00;;;;;;5035596;28;20629;-87
2023/04/06 12:48:58;;;;;;;7.90;5.30;;;14.50;1.00;;;;;;5053174;28;20220;-87
2023/04/06 12:51:27;;;;;;;6.90;5.10;;;14.70;1.00;;;;;;5053037;28;20177;-87